createdAt,value
2022-10-05T00:02:47.969Z,101573.25
2022-10-05T00:07:49.446Z,101565.00
2022-10-05T00:12:50.962Z,101565.16
2022-10-05T00:17:52.420Z,101546.09
2022-10-05T00:23:04.146Z,101549.41
2022-10-05T00:28:17.625Z,101542.19
2022-10-05T00:33:19.194Z,101531.25
2022-10-05T00:38:20.722Z,101516.84
2022-10-05T00:43:47.216Z,101507.72
2022-10-05T00:49:07.400Z,101507.72
2022-10-05T00:54:49.327Z,101507.72
2022-10-05T01:00:05.694Z,101497.59
2022-10-05T01:05:29.556Z,101473.88
2022-10-05T01:10:38.410Z,101467.47
2022-10-05T01:15:51.752Z,101466.47
2022-10-05T01:21:06.158Z,101462.38
2022-10-05T01:26:29.176Z,101447.38
2022-10-05T01:31:42.907Z,101443.78
2022-10-05T01:36:50.774Z,101444.16
2022-10-05T01:42:37.221Z,101429.38
2022-10-05T01:47:45.682Z,101415.59
2022-10-05T01:53:02.142Z,101420.72
2022-10-05T01:58:22.861Z,101413.72
2022-10-05T02:03:30.849Z,101401.16
2022-10-05T02:08:39.855Z,101407.72
2022-10-05T02:13:50.355Z,101392.91
2022-10-05T02:19:00.694Z,101396.34
2022-10-05T02:24:08.730Z,101404.78
2022-10-05T02:29:13.964Z,101400.03
2022-10-05T02:34:22.804Z,101406.56
2022-10-05T02:39:56.895Z,101390.81
2022-10-05T02:45:13.656Z,101402.47
2022-10-05T02:50:31.724Z,101405.91
2022-10-05T02:55:39.297Z,101406.09
2022-10-05T03:00:48.045Z,101395.09
2022-10-05T03:06:02.410Z,101398.88
2022-10-05T03:11:26.215Z,101400.22
2022-10-05T03:16:38.629Z,101391.28
2022-10-05T03:21:56.486Z,101385.63
2022-10-05T03:27:15.802Z,101383.03
2022-10-05T03:32:38.659Z,101378.13
2022-10-05T03:38:01.814Z,101371.75
2022-10-05T03:43:48.666Z,101369.00
2022-10-05T03:49:20.855Z,101362.19
2022-10-05T03:54:30.086Z,101349.44
2022-10-05T03:59:39.276Z,101348.78
2022-10-05T04:04:50.904Z,101348.78
2022-10-05T04:09:53.110Z,101336.47
2022-10-05T04:14:59.823Z,101336.25
2022-10-05T04:20:15.260Z,101335.41
2022-10-05T04:25:21.364Z,101326.31
2022-10-05T04:30:22.918Z,101318.25
2022-10-05T04:35:58.191Z,101314.47
2022-10-05T04:41:21.721Z,101306.41
2022-10-05T04:46:53.468Z,101308.47
2022-10-05T04:52:05.947Z,101308.88
2022-10-05T04:57:13.573Z,101306.13
2022-10-05T05:02:29.212Z,101292.72
2022-10-05T05:07:42.405Z,101295.47
2022-10-05T05:13:15.291Z,101297.75
2022-10-05T05:18:45.831Z,101302.69
2022-10-05T05:23:54.862Z,101297.03
2022-10-05T05:29:19.948Z,101303.06
2022-10-05T05:34:52.427Z,101291.22
2022-10-05T05:40:26.221Z,101285.91
2022-10-05T05:45:54.261Z,101286.09
2022-10-05T05:51:01.582Z,101292.44
2022-10-05T05:56:20.542Z,101280.41
2022-10-05T06:01:39.487Z,101281.25
2022-10-05T06:06:49.792Z,101289.34
2022-10-05T06:11:58.333Z,101291.22
2022-10-05T06:17:03.743Z,101295.00
2022-10-05T06:22:15.044Z,101301.19
2022-10-05T06:27:27.199Z,101292.53
2022-10-05T06:32:43.726Z,101300.78
2022-10-05T06:37:57.771Z,101300.41
2022-10-05T06:43:14.281Z,101295.56
2022-10-05T06:48:34.300Z,101288.88
2022-10-05T06:53:48.738Z,101285.25
2022-10-05T06:59:23.702Z,101283.16
2022-10-05T07:04:37.200Z,101288.66
2022-10-05T07:10:00.050Z,101281.09
2022-10-05T07:15:27.551Z,101287.06
2022-10-05T07:20:34.046Z,101278.25
2022-10-05T07:25:46.302Z,101276.81
2022-10-05T07:31:03.778Z,101276.66
2022-10-05T07:36:59.429Z,101283.75
2022-10-05T07:42:50.557Z,101270.66
2022-10-05T07:47:58.090Z,101266.94
2022-10-05T07:53:31.239Z,101249.69
2022-10-05T07:58:46.695Z,101254.06
2022-10-05T08:04:03.301Z,101252.59
2022-10-05T08:09:22.490Z,101250.16
2022-10-05T08:14:34.973Z,101244.91
2022-10-05T08:19:49.085Z,101238.22
2022-10-05T08:25:01.774Z,101240.66
2022-10-05T08:30:09.008Z,101232.16
2022-10-05T08:35:37.692Z,101236.59
2022-10-05T08:41:00.924Z,101229.25
2022-10-05T08:46:20.822Z,101226.09
2022-10-05T08:51:45.476Z,101209.50
2022-10-05T08:57:05.346Z,101216.84
2022-10-05T09:02:28.790Z,101217.94
2022-10-05T09:07:49.944Z,101212.06
2022-10-05T09:13:19.409Z,101216.09
2022-10-05T09:18:35.946Z,101215.25
2022-10-05T09:23:45.081Z,101215.06
2022-10-05T09:29:16.734Z,101212.91
2022-10-05T09:34:30.964Z,101217.59
2022-10-05T09:40:23.374Z,101206.13
2022-10-05T09:45:47.080Z,101204.81
2022-10-05T09:50:57.070Z,101202.72
2022-10-05T09:56:09.081Z,101199.97
2022-10-05T10:01:46.500Z,101202.31
2022-10-05T10:07:02.309Z,101203.13
2022-10-05T10:12:32.543Z,101198.06
2022-10-05T10:18:17.006Z,101187.88
2022-10-05T10:23:29.617Z,101199.16
2022-10-05T10:28:58.585Z,101203.81
2022-10-05T10:34:24.816Z,101198.56
2022-10-05T10:39:35.209Z,101192.84
2022-10-05T10:45:07.733Z,101199.88
2022-10-05T10:50:22.996Z,101203.69
2022-10-05T10:55:49.318Z,101201.91
2022-10-05T11:00:55.083Z,101200.69
2022-10-05T11:06:33.409Z,101204.53
2022-10-05T11:12:07.247Z,101203.25
2022-10-05T11:17:24.578Z,101206.63
2022-10-05T11:22:58.731Z,101211.13
2022-10-05T11:28:15.379Z,101206.19
2022-10-05T11:33:55.015Z,101200.47
2022-10-05T11:39:33.524Z,101192.00
2022-10-05T11:45:06.233Z,101177.38
2022-10-05T11:50:26.810Z,101181.56
2022-10-05T11:55:37.344Z,101168.38
2022-10-05T12:01:01.721Z,101170.78
2022-10-05T12:06:14.998Z,101164.03
2022-10-05T12:11:42.640Z,101167.19
2022-10-05T12:17:04.477Z,101151.50
2022-10-05T12:22:18.135Z,101135.28
2022-10-05T12:27:26.065Z,101130.84
2022-10-05T12:32:55.857Z,101117.50
2022-10-05T12:38:28.669Z,101120.28
2022-10-05T12:43:45.010Z,101115.22
2022-10-05T12:49:10.547Z,101105.88
2022-10-05T12:54:30.789Z,101110.94
2022-10-05T12:59:32.171Z,101095.09
2022-10-05T13:04:55.747Z,101089.22
2022-10-05T13:10:29.444Z,101080.72
2022-10-05T13:15:52.936Z,101073.13
2022-10-05T13:21:01.150Z,101063.56
2022-10-05T13:26:12.365Z,101073.13
2022-10-05T13:31:36.226Z,101056.34
2022-10-05T13:37:28.192Z,101065.53
2022-10-05T13:42:48.238Z,101075.53
2022-10-05T13:48:10.947Z,101054.09
2022-10-05T13:53:31.130Z,101069.59
2022-10-05T13:58:50.847Z,101056.84
2022-10-05T14:04:19.749Z,101058.97
2022-10-05T14:09:29.063Z,101071.09
2022-10-05T14:14:52.693Z,101073.22
2022-10-05T14:19:58.463Z,101063.66
2022-10-05T14:25:16.227Z,101050.69
2022-10-05T14:30:25.622Z,101065.34
2022-10-05T14:35:43.750Z,101059.38
2022-10-05T14:40:45.331Z,101053.66
2022-10-05T14:46:23.314Z,101050.22
2022-10-05T14:51:32.253Z,101052.13
2022-10-05T14:56:46.571Z,101061.47
2022-10-05T15:01:58.847Z,101058.09
2022-10-05T15:07:20.319Z,101060.63
2022-10-05T15:12:35.216Z,101069.50
2022-10-05T15:17:44.600Z,101073.97
2022-10-05T15:22:59.456Z,101071.22
2022-10-05T15:28:39.469Z,101086.06
2022-10-05T15:33:49.214Z,101097.50
2022-10-05T15:39:28.809Z,101088.22
2022-10-05T15:45:05.347Z,101085.72
2022-10-05T15:50:26.743Z,101086.66
2022-10-05T15:55:52.955Z,101076.34
2022-10-05T16:01:05.161Z,101095.66
2022-10-05T16:06:32.607Z,101091.31
2022-10-05T16:11:36.921Z,101079.69
2022-10-05T16:16:59.570Z,101084.13
2022-10-05T16:22:14.056Z,101083.06
2022-10-05T16:27:18.482Z,101098.38
2022-10-05T16:32:30.213Z,101107.28
2022-10-05T16:37:47.108Z,101104.34
2022-10-05T16:43:20.712Z,101096.69
2022-10-05T16:48:31.042Z,101090.56
2022-10-05T16:53:44.030Z,101098.59
2022-10-05T16:59:33.493Z,101104.28
2022-10-05T17:05:00.965Z,101109.59
2022-10-05T17:10:46.258Z,101111.69
2022-10-05T17:16:14.939Z,101106.84
2022-10-05T17:21:34.782Z,101117.22
2022-10-05T17:26:59.237Z,101115.50
2022-10-05T17:32:16.849Z,101121.25
2022-10-05T17:37:35.421Z,101126.75
2022-10-05T17:42:36.825Z,101122.31
2022-10-05T17:48:08.813Z,101136.25
2022-10-05T17:53:41.290Z,101148.09
2022-10-05T17:58:54.960Z,101140.22
2022-10-05T18:04:11.289Z,101161.84
2022-10-05T18:09:17.090Z,101146.34
2022-10-05T18:14:24.707Z,101163.31
2022-10-05T18:19:30.147Z,101175.38
2022-10-05T18:24:55.712Z,101171.94
2022-10-05T18:30:08.708Z,101189.09
2022-10-05T18:35:49.836Z,101199.34
2022-10-05T18:41:16.469Z,101217.03
2022-10-05T18:46:25.174Z,101281.34
2022-10-05T18:51:51.850Z,101299.00
2022-10-05T18:56:54.153Z,101309.53
2022-10-05T19:02:34.387Z,101331.56
2022-10-05T19:08:07.889Z,101296.56
2022-10-05T19:13:15.053Z,101322.88
2022-10-05T19:18:41.430Z,101315.84
2022-10-05T19:24:10.712Z,101335.09
2022-10-05T19:29:27.419Z,101373.22
2022-10-05T19:34:54.156Z,101386.81
2022-10-05T19:40:16.371Z,101401.97
2022-10-05T19:45:25.858Z,101423.81
2022-10-05T19:50:30.296Z,101413.19
2022-10-05T19:55:35.852Z,101424.66
2022-10-05T20:00:37.713Z,101437.53
2022-10-05T20:05:40.128Z,101466.72
2022-10-05T20:10:41.629Z,101495.75
2022-10-05T20:16:47.526Z,101507.41
2022-10-05T20:21:56.724Z,101504.00
2022-10-05T20:27:05.461Z,101513.94
2022-10-05T20:32:17.989Z,101516.69
2022-10-05T20:37:20.108Z,101522.56
2022-10-05T20:42:22.981Z,101538.38
2022-10-05T20:47:25.421Z,101543.22
2022-10-05T20:52:26.923Z,101550.09
2022-10-05T20:57:28.441Z,101565.03
2022-10-05T21:02:29.903Z,101575.16
2022-10-05T21:07:33.905Z,101575.16
2022-10-05T21:12:35.456Z,101578.44
2022-10-05T21:17:37.966Z,101592.06
2022-10-05T21:22:39.414Z,101587.44
2022-10-05T21:27:41.265Z,101598.63
2022-10-05T21:32:44.632Z,101605.16
2022-10-05T21:37:46.182Z,101603.81
2022-10-05T21:42:47.642Z,101607.41
2022-10-05T21:47:49.140Z,101619.25
2022-10-05T21:52:51.827Z,101621.47
2022-10-05T21:57:56.506Z,101643.13
2022-10-05T22:02:57.954Z,101644.31
2022-10-05T22:07:59.497Z,101663.53
2022-10-05T22:13:02.615Z,101669.56
2022-10-05T22:18:04.083Z,101679.66
2022-10-05T22:23:05.528Z,101680.69
2022-10-05T22:28:11.244Z,101695.97
2022-10-05T22:33:13.260Z,101708.16
2022-10-05T22:38:14.725Z,101718.09
2022-10-05T22:43:16.236Z,101725.31
2022-10-05T22:48:18.713Z,101744.88
2022-10-05T22:53:20.170Z,101757.94
2022-10-05T22:58:21.878Z,101747.97
2022-10-05T23:03:23.351Z,101763.72
2022-10-05T23:08:25.096Z,101767.81
2022-10-05T23:13:26.871Z,101781.84
2022-10-05T23:18:28.573Z,101778.84
2022-10-05T23:23:30.230Z,101802.63
2022-10-05T23:28:32.303Z,101803.97
2022-10-05T23:33:34.966Z,101806.72
2022-10-05T23:38:36.591Z,101833.28
2022-10-05T23:43:38.347Z,101830.34
2022-10-05T23:48:39.834Z,101860.50
2022-10-05T23:53:41.277Z,101859.13
2022-10-05T23:58:42.808Z,101883.31
